Caliente, Nevada Weather observations

Data are for observation ending at time listed.
 Day   Time    Ave.   Ave.  Ave.  Vector   Max.   Stn.    Total    Solar   Ave.  
  of    of     Air    Rel.  Wind   Wind    Wind   Baro.  Precip.   Rad.    Soil  
Year   Day     Temp.  Hum.  Speed  Dir.    Gust   Pres.                    Temp. 
2015   (PST)    F      %     mph   deg.    mph     mb.     in.     W/m2     F   
------------------------------------------------------------------------------
  28   21:20   40.5    77    0.3   148      2.5   874.2    0.00       0    44.1
  28   21:30   40.2    78    0.8   145      2.4   874.2    0.00       0    44.0
  28   21:40   39.8    78    0.1   225      0.9   874.3    0.00       0    43.9
  28   21:50   39.5    79    1.1    83      5.5   874.4    0.00       0    43.8
  28   22:00   39.4    79    0.4   165      1.8   874.4    0.00       0    43.7
  28   22:10   39.4    79    0.3   238      1.7   874.6    0.00       0    43.6
  28   22:20   39.1    80    0.1   252      0.9   874.8    0.00       0    43.5
  28   22:30   38.9    80    0.0     0      0.0   874.9    0.00       0    43.4
  28   22:40   38.7    80    1.3   108      2.5   874.9    0.00       0    43.4
  28   22:50   39.2    79    0.7   112      2.3   874.9    0.00       0    43.3
  28   23:00   39.1    79    0.3    50      1.5   874.8    0.00       0    43.2
  28   23:10   38.7    80    0.5    98      1.4   875.0    0.00       0    43.1
  28   23:20   38.4    79    0.4    77      1.3   875.0    0.00       0    43.0
  28   23:30   38.2    80    0.6   134      1.4   875.0    0.00       0    43.0
  28   23:40   38.1    80    1.2   126      2.0   874.9    0.00       0    42.9
  28   23:50   38.1    80    1.2    13      3.0   874.9    0.00       0    42.8
  29    0:00   37.9    80    0.6   103      1.9   874.9    0.00       0    42.7
  29    0:10   37.6    81    0.6   233      3.7   874.8    0.00       0    42.7
  29    0:20   38.0    80    0.3   241      1.4   874.8    0.00       0    42.6
  29    0:30   37.7    81    0.3   150      1.4   874.9    0.00       0    42.5
  29    0:40   37.7    82    0.0   153      0.5   874.9    0.00       0    42.5
  29    0:50   37.7    82    0.0     0      0.0   874.8    0.00       0    42.4
  29    1:00   37.6    82    0.4   339      1.3   874.8    0.00       1    42.3
  29    1:10   37.7    82    0.1   228      1.0   874.7    0.00       0    42.3
  29    1:20   37.7    82    0.4   110      1.7   874.7    0.00       0    42.3
  29    1:30   37.7    82    0.5   101      1.8   874.6    0.00       0    42.2
  29    1:40   37.7    81    0.7    89      1.6   874.6    0.00       0    42.2
  29    1:50   37.5    81    1.4   119      2.6   874.5    0.00       0    42.1
  29    2:00   37.5    81    0.9   115      1.7   874.5    0.00       0    42.1
  29    2:10   37.6    81    0.9   128      1.7   874.5    0.00       0    42.1
  29    2:20   37.7    80    0.2   148      1.2   874.6    0.00       0    42.0
  29    2:30   37.5    81    1.0    99      2.5   874.4    0.00       0    42.0
  29    2:40   37.2    81    0.2   137      1.6   874.4    0.00       0    41.9
  29    2:50   37.3    82    0.4   196      1.8   874.3    0.00       0    41.9
  29    3:00   37.2    82    0.2   121      1.5   874.3    0.00       0    41.9
  29    3:10   37.0    82    0.2   119      1.3   874.2    0.00       1    41.8
  29    3:20   37.0    82    0.7    27      1.4   874.2    0.00       0    41.8
  29    3:30   36.9    82    0.6   102      1.4   874.2    0.00       0    41.7
  29    3:40   37.0    82    0.5    44      1.6   874.1    0.00       0    41.7
  29    3:50   36.9    82    0.7   123      1.8   874.1    0.00       0    41.7
  29    4:00   36.9    82    0.4   225      1.3   874.1    0.00       0    41.6
  29    4:10   37.1    82    0.8    67      2.5   874.1    0.00       0    41.6
  29    4:20   36.9    82    0.4    99      1.8   874.1    0.00       0    41.5
  29    4:30   36.9    82    0.9   108      1.8   874.1    0.00       0    41.5
  29    4:40   36.9    82    1.1   128      2.0   874.0    0.00       0    41.5
  29    4:50   37.2    81    0.2   350      0.9   874.0    0.00       0    41.4
  29    5:00   37.3    82    0.1   351      1.2   874.1    0.00       0    41.4
  29    5:10   37.2    81    0.4   230      1.4   874.2    0.00       0    41.4
  29    5:20   36.9    82    0.8   237      2.7   874.2    0.00       0    41.3
  29    5:30   37.1    82    0.1   197      0.9   874.2    0.00       0    41.3
  29    5:40   37.1    82    0.7    37      1.5   874.2    0.00       0    41.3
  29    5:50   37.0    82    0.2   163      0.9   874.3    0.00       0    41.2
  29    6:00   37.1    82    0.3   148      1.5   874.4    0.00       0    41.2
  29    6:10   37.3    82    0.2   133      1.4   874.4    0.00       0    41.2
  29    6:20   37.6    81    1.1    47      2.3   874.4    0.00       0    41.2
  29    6:30   37.7    81    2.0   359      5.8   874.4    0.00       0    41.1
  29    6:40   37.7    81    0.3   228      1.3   874.4    0.00       0    41.1
  29    6:50   37.7    81    0.0     0      0.0   874.4    0.00       1    41.1
  29    7:00   37.4    81    0.0     0      0.0   874.4    0.00       3    41.0
  29    7:10   37.4    82    0.1   199      0.9   874.5    0.00       7    41.0
  29    7:20   37.5    82    0.8   247      1.6   874.6    0.00      11    41.0
  29    7:30   37.5    82    0.1   258      1.1   874.6    0.00      12    41.0
  29    7:40   37.9    81    0.1   183      1.1   874.7    0.00      22    41.0
  29    7:50   38.7    79    0.2   266      1.4   874.8    0.00      32    41.0
  29    8:00   38.8    80    1.5   253      2.3   874.8    0.00      49    41.0
  29    8:10   38.8    81    0.7   248      2.1   874.8    0.00      65    41.0
  29    8:20   39.8    78    0.8   217      2.0   874.8    0.00      71    41.0
  29    8:30   40.5    76    1.5   217      2.8   874.8    0.00      76    41.0
  29    8:40   41.3    72    0.7   339      2.3   874.9    0.00      82    41.1
  29    8:50   41.8    71    0.7   100      1.9   874.9    0.00      90    41.2
  29    9:00   42.4    70    0.5   263      1.3   874.9    0.00      96    41.3
  29    9:10   42.9    68    0.5   258      2.1   875.0    0.00     103    41.4
  29    9:20   42.9    69    1.2   250      2.1   875.1    0.00     108    41.5
  29    9:30   43.1    69    1.7   242      2.9   875.0    0.00     113    41.6
  29    9:40   43.5    69    1.6   248      2.6   875.1    0.00     120    41.7
  29    9:50   43.7    68    2.4   254      3.2   875.0    0.00     126    41.9
  29   10:00   44.4    66    1.1   252      2.4   875.0    0.00     149    42.0
  29   10:10   45.4    64    1.2   252      2.4   875.0    0.00     162    42.2
  29   10:20   46.0    62    1.0   260      2.6   874.9    0.00     173    42.4
  29   10:30   46.6    61    0.4   255      1.8   874.8    0.00     170    42.5
  29   10:40   47.6    58    0.3    23      1.3   874.6    0.00     171    42.7
  29   10:50   47.9    58    0.9   158      2.3   874.4    0.00     176    42.9
  29   11:00   48.3    57    1.5   286      4.5   874.3    0.00     179    43.1
  29   11:10   48.7    56    2.2   332      5.4   874.1    0.00     181    43.3
  29   11:20   49.4    53    3.5    38      8.0   873.9    0.00     178    43.5
  29   11:30   49.7    52    2.3    86      7.2   873.7    0.00     172    43.7
  29   11:40   50.0    52    4.5    48     11.0   873.6    0.00     167    43.9
  29   11:50   50.1    52    4.8    38     11.0   873.4    0.00     151    44.1
  29   12:00   50.2    51    3.5    75      9.1   873.2    0.00     144    44.3
  29   12:10   50.5    51    3.1    64      7.4   873.1    0.00     142    44.5
  29   12:20   50.5    51    3.1    76      8.1   873.0    0.00     123    44.7
  29   12:30   50.1    52    3.8    24      7.0   872.8    0.00     119    44.9
  29   12:40   50.2    52    2.3    31      5.1   872.7    0.00     126    45.0
  29   12:50   50.4    52    3.0    25      6.2   872.7    0.00     130    45.2
  29   13:00   50.6    52    3.4    20      6.5   872.6    0.00     120    45.3
  29   13:10   50.6    53    2.2    49      5.4   872.5    0.00      89    45.4
  29   13:20   49.9    58    4.6   351     10.3   872.3    0.00      88    45.6
  29   13:30   49.0    63    4.5    23      8.3   872.1    0.00     121    45.7
  29   13:40   49.4    62    3.1    32      6.1   872.1    0.00     122    45.7
  29   13:50   49.7    60    2.6    50      6.2   872.1    0.00     123    45.8
  29   14:00   49.9    61    2.7    37      5.3   872.0    0.00     132    45.8
  29   14:10   49.9    60    3.3    28      6.5   871.8    0.00     137    45.9
  29   14:20   50.1    60    2.6    27      7.1   871.8    0.00     125    45.9
  29   14:30   50.1    59    2.4    61      7.0   871.8    0.00     109    46.0
  29   14:40   49.9    60    2.9    76      6.6   871.8    0.00      94    46.1
  29   14:50   50.0    60    3.6    51      9.3   871.7    0.00      86    46.1
  29   15:00   50.0    60    3.4    42      7.0   871.7    0.00      81    46.1
  29   15:10   50.1    60    3.3    37      6.7   871.7    0.00      74    46.2
  29   15:20   49.8    60    3.2    37      7.3   871.6    0.00      62    46.2
  29   15:30   49.6    60    3.2    36      7.5   871.6    0.00      59    46.3
  29   15:40   49.6    61    2.7    46      5.5   871.6    0.00      53    46.3
  29   15:50   49.5    62    3.0    35      7.7   871.6    0.00      52    46.3
  29   16:00   49.3    62    4.8    21     10.7   871.5    0.00      45    46.3
  29   16:10   49.0    63    4.5    30     12.7   871.4    0.00      34    46.3
  29   16:20   48.9    64    3.1    55      7.4   871.3    0.00      24    46.3
  29   16:30   48.8    65    4.1    44     10.9   871.2    0.00      18    46.3
  29   16:40   48.7    65    3.6    37      7.3   871.2    0.00      10    46.3
  29   16:50   48.6    66    2.7    44      6.2   871.2    0.00       7    46.3
  29   17:00   48.5    66    2.9    44      7.0   871.2    0.00       3    46.3
  29   17:10   48.5    66    2.9    39      7.4   871.3    0.00       2    46.3
  29   17:20   48.4    67    2.1    33      4.9   871.4    0.00       0    46.2
  29   17:30   48.1    67    2.2    51      5.0   871.5    0.00       0    46.2
  29   17:40   47.7    69    1.6    83      3.7   871.6    0.00       0    46.1
  29   17:50   47.4    70    1.3    74      3.2   871.6    0.00       0    46.1
  29   18:00   47.4    70    1.1    72      3.5   871.7    0.00       0    46.0
  29   18:10   47.3    71    1.3    68      3.9   871.8    0.00       0    46.0
  29   18:20   47.3    71    1.3    86      2.9   871.9    0.00       0    45.9
  29   18:30   47.5    71    2.8   102      5.3   871.9    0.00       0    45.9
  29   18:40   47.7    71    1.5    83      5.6   871.9    0.00       0    45.8
  29   18:50   47.3    72    2.2    18      5.3   871.9    0.00       0    45.8
  29   19:00   46.8    73    1.9    59      4.3   871.8    0.00       0    45.7
  29   19:10   46.8    73    0.9    65      3.1   871.8    0.00       0    45.7
  29   19:20   46.6    73    2.5    74      8.0   871.7    0.00       0    45.7
  29   19:30   46.6    73    1.2    73      4.5   871.6    0.00       0    45.6
  29   19:40   46.5    73    2.4    62      6.9   871.5    0.00       0    45.6
  29   19:50   46.4    73    2.8    95      7.1   871.5    0.00       0    45.6
  29   20:00   46.3    73    3.2    92      8.0   871.4    0.00       0    45.5
  29   20:10   46.3    72    3.6    97      7.1   871.4    0.00       0    45.5
  29   20:20   46.3    73    2.8    86      9.5   871.4    0.00       0    45.4
  29   20:30   46.1    73    1.6    76      4.8   871.3    0.00       0    45.4
  29   20:40   46.2    72    2.0    83      7.7   871.3    0.00       0    45.4
  29   20:50   46.7    70    2.6    79      7.2   871.2    0.00       0    45.3
  29   21:00   46.7    69    2.4    80      6.5   871.2    0.00       0    45.3
  29   21:10   46.6    69    2.6    87      7.2   871.1    0.00       0    45.3

Return to Caliente, Nevada graphs page.


Western Regional Climate Center,wrcc@dri.edu